Time;durP1;ratioP1;P1;durP2;ratioP2;P2;SDS_P1;SDS_P2;PMS_P1;PMS_P2;Temp;Humidity;BMP_temperature;BMP_pressure;BME280_temperature;BME280_humidity;BME280_pressure;Samples;Min_cycle;Max_cycle;Signal;HPM_P1;HPM_P2
2023/05/18 00:01:06;;;;;;;2.83;1.40;;;11.00;57.90;;;;;;5053727;28;20169;-74
2023/05/18 00:03:32;;;;;;;4.60;1.60;;;11.00;58.00;;;;;;5059396;28;20660;-73
2023/05/18 00:06:03;;;;;;;6.63;1.67;;;10.90;58.00;;;;;;5034401;28;20210;-73
2023/05/18 00:08:30;;;;;;;6.88;1.80;;;10.90;58.30;;;;;;5036852;28;20227;-73
2023/05/18 00:10:56;;;;;;;8.88;2.20;;;10.90;58.40;;;;;;5035876;28;20212;-73
2023/05/18 00:13:22;;;;;;;3.35;1.25;;;10.80;58.70;;;;;;5031125;28;20205;-73
2023/05/18 00:15:47;;;;;;;5.77;1.63;;;10.80;58.70;;;;;;5014199;28;20269;-74
2023/05/18 00:18:13;;;;;;;5.07;1.30;;;10.80;58.90;;;;;;5014797;28;20244;-73
2023/05/18 00:20:39;;;;;;;4.03;1.43;;;10.70;59.10;;;;;;5015013;28;20188;-73
2023/05/18 00:23:09;;;;;;;3.57;1.53;;;10.60;59.30;;;;;;5038096;28;20212;-73
2023/05/18 00:25:35;;;;;;;4.90;1.52;;;10.70;59.50;;;;;;5016548;28;20182;-73
2023/05/18 00:28:00;;;;;;;7.30;1.63;;;10.60;59.70;;;;;;5032514;28;20185;-74
2023/05/18 00:30:26;;;;;;;4.40;1.70;;;10.60;59.90;;;;;;5032962;28;20255;-73
2023/05/18 00:32:52;;;;;;;5.13;1.40;;;10.60;59.80;;;;;;5015373;28;20698;-73
2023/05/18 00:35:18;;;;;;;6.70;1.63;;;10.50;60.20;;;;;;5032780;28;20181;-73
2023/05/18 00:37:43;;;;;;;4.50;1.40;;;10.50;60.40;;;;;;5032487;28;20216;-73
2023/05/18 00:40:10;;;;;;;6.30;1.47;;;10.50;60.90;;;;;;5022260;28;20757;-73
2023/05/18 00:42:36;;;;;;;6.15;1.48;;;10.40;60.90;;;;;;5031522;28;20568;-73
2023/05/18 00:45:02;;;;;;;4.00;1.37;;;10.40;61.00;;;;;;5040226;28;20193;-73
2023/05/18 00:47:28;;;;;;;3.90;1.42;;;10.40;61.80;;;;;;5048164;28;20186;-74
2023/05/18 00:49:53;;;;;;;6.50;1.47;;;10.40;61.90;;;;;;5048375;28;20806;-74
2023/05/18 00:52:20;;;;;;;3.90;1.40;;;10.30;62.00;;;;;;5052982;28;20168;-74
2023/05/18 00:54:46;;;;;;;3.13;1.30;;;10.30;62.40;;;;;;5020993;28;20585;-74
2023/05/18 00:57:12;;;;;;;5.32;1.88;;;10.20;62.60;;;;;;5015947;28;20410;-72
2023/05/18 00:59:38;;;;;;;3.97;1.60;;;10.20;63.10;;;;;;5015457;28;20268;-72
2023/05/18 01:02:05;;;;;;;5.97;2.28;;;10.20;63.60;;;;;;5015253;28;20177;-73
2023/05/18 01:04:31;;;;;;;4.13;1.63;;;10.20;63.90;;;;;;5015051;28;20339;-73
2023/05/18 01:07:21;;;;;;;5.20;1.42;;;10.10;66.50;;;;;;5033054;28;20236;-73
2023/05/18 01:09:47;;;;;;;4.97;1.45;;;10.10;65.30;;;;;;5032150;28;20654;-73
2023/05/18 01:12:24;;;;;;;3.17;1.20;;;10.10;65.40;;;;;;5013663;28;20185;-72
2023/05/18 01:15:14;;;;;;;4.30;1.10;;;10.10;66.20;;;;;;5017515;28;20616;-73
2023/05/18 01:17:59;;;;;;;3.67;1.30;;;10.10;67.70;;;;;;5025857;28;20169;-73
2023/05/18 01:20:56;;;;;;;3.35;1.58;;;10.10;66.50;;;;;;5031558;28;20197;-73
2023/05/18 01:23:43;;;;;;;4.22;1.02;;;10.00;67.70;;;;;;5011277;28;20560;-72
2023/05/18 01:26:24;;;;;;;9.68;1.63;;;10.00;67.10;;;;;;5011875;28;20182;-73
2023/05/18 01:28:51;;;;;;;3.22;1.17;;;10.00;68.50;;;;;;5011480;28;20589;-73
2023/05/18 01:31:17;;;;;;;7.65;1.40;;;9.90;68.90;;;;;;5011905;28;20577;-73
2023/05/18 01:33:43;;;;;;;7.80;1.40;;;9.90;69.20;;;;;;5014401;28;20189;-73
2023/05/18 01:36:10;;;;;;;2.72;1.20;;;9.90;69.70;;;;;;5015045;28;20703;-72
2023/05/18 01:38:37;;;;;;;3.95;1.30;;;9.90;71.60;;;;;;5031119;28;20173;-73
2023/05/18 01:41:11;;;;;;;3.10;1.20;;;9.90;71.30;;;;;;5031041;28;20184;-72
2023/05/18 01:43:46;;;;;;;4.63;1.30;;;9.90;71.70;;;;;;5014325;28;20196;-72
2023/05/18 01:46:50;;;;;;;5.60;1.52;;;9.80;71.80;;;;;;5031312;28;20533;-73
2023/05/18 01:49:30;;;;;;;6.13;1.70;;;9.80;72.90;;;;;;5023777;28;20225;-73
2023/05/18 01:52:00;;;;;;;4.30;1.50;;;9.70;72.20;;;;;;5014519;28;20173;-73
2023/05/18 01:54:29;;;;;;;3.05;1.35;;;9.70;72.50;;;;;;5035699;28;20549;-74
2023/05/18 01:56:56;;;;;;;5.75;1.73;;;9.70;73.00;;;;;;5014660;28;20177;-73
2023/05/18 01:59:23;;;;;;;4.25;1.40;;;9.70;73.30;;;;;;5014090;28;20537;-73
2023/05/18 02:01:50;;;;;;;3.30;1.45;;;9.60;73.50;;;;;;5014171;28;20650;-73
2023/05/18 02:04:15;;;;;;;4.03;1.25;;;9.60;74.10;;;;;;5014327;28;20255;-73
2023/05/18 02:06:41;;;;;;;5.10;1.70;;;9.60;74.70;;;;;;5030399;28;20174;-73
2023/05/18 02:09:07;;;;;;;4.15;1.45;;;9.60;75.10;;;;;;5030904;28;20205;-73
2023/05/18 02:11:34;;;;;;;4.10;1.40;;;9.60;75.50;;;;;;5030062;28;20209;-73
2023/05/18 02:14:01;;;;;;;2.95;1.20;;;9.50;75.70;;;;;;5013640;28;20217;-73
2023/05/18 02:16:27;;;;;;;5.22;1.40;;;9.50;76.40;;;;;;5024793;28;20173;-73
2023/05/18 02:18:53;;;;;;;2.83;1.20;;;9.40;76.60;;;;;;5033798;28;20177;-73
2023/05/18 02:21:19;;;;;;;3.90;1.65;;;9.40;77.30;;;;;;5016784;28;20575;-73
2023/05/18 02:23:45;;;;;;;11.00;1.60;;;9.40;78.00;;;;;;5018728;28;20201;-73
2023/05/18 02:26:10;;;;;;;3.13;1.20;;;9.40;78.20;;;;;;5011460;28;20631;-73
2023/05/18 02:28:39;;;;;;;4.27;1.30;;;9.40;78.60;;;;;;5030006;28;20181;-73
2023/05/18 02:31:13;;;;;;;3.60;1.65;;;9.30;79.00;;;;;;5015993;28;20628;-73
2023/05/18 02:33:39;;;;;;;5.43;1.58;;;9.30;79.80;;;;;;5033018;28;20229;-73
2023/05/18 02:36:13;;;;;;;1.90;1.10;;;9.30;79.70;;;;;;5031910;28;20177;-73
2023/05/18 02:38:42;;;;;;;5.47;1.40;;;9.20;80.90;;;;;;5030803;28;20568;-73
2023/05/18 02:41:09;;;;;;;4.90;1.27;;;9.20;80.50;;;;;;5013843;28;20293;-73
2023/05/18 02:43:35;;;;;;;5.28;1.45;;;9.20;81.20;;;;;;5030470;28;20280;-74
2023/05/18 02:46:01;;;;;;;4.47;1.67;;;9.20;81.40;;;;;;5030912;28;20219;-74
2023/05/18 02:48:28;;;;;;;8.65;1.75;;;9.20;81.70;;;;;;5014651;28;20723;-73
2023/05/18 02:50:55;;;;;;;2.53;1.42;;;9.10;82.50;;;;;;5014089;28;20218;-74
2023/05/18 02:53:21;;;;;;;3.47;1.38;;;9.10;82.80;;;;;;5030027;28;20205;-73
2023/05/18 02:55:48;;;;;;;3.60;1.40;;;9.10;83.20;;;;;;5013495;28;20170;-73
2023/05/18 02:58:19;;;;;;;2.53;1.30;;;9.00;83.40;;;;;;5030426;28;20932;-74
2023/05/18 03:00:59;;;;;;;3.17;1.63;;;9.00;84.00;;;;;;5012998;28;20179;-73
2023/05/18 03:03:28;;;;;;;5.45;1.80;;;9.00;84.60;;;;;;5013295;28;20197;-73
2023/05/18 03:05:53;;;;;;;6.18;1.45;;;9.00;84.80;;;;;;5012978;28;20173;-73
2023/05/18 03:08:22;;;;;;;3.67;1.50;;;9.00;85.40;;;;;;5018297;28;20665;-72
2023/05/18 03:10:49;;;;;;;4.68;1.60;;;9.00;86.20;;;;;;5012786;28;20689;-72
2023/05/18 03:13:15;;;;;;;3.50;1.50;;;8.90;87.10;;;;;;5012999;28;20205;-72
2023/05/18 03:15:40;;;;;;;6.50;1.60;;;8.90;86.80;;;;;;5029630;28;20180;-73
2023/05/18 03:18:06;;;;;;;4.13;1.55;;;8.90;87.10;;;;;;5031007;28;20166;-73
2023/05/18 03:20:34;;;;;;;5.00;1.70;;;8.90;87.80;;;;;;5029441;28;20591;-73
2023/05/18 03:23:00;;;;;;;2.63;2.20;;;8.80;88.00;;;;;;5025311;28;20237;-73
2023/05/18 03:25:26;;;;;;;3.35;1.80;;;8.80;88.40;;;;;;5028130;28;20182;-73
2023/05/18 03:27:52;;;;;;;2.00;1.20;;;8.80;88.80;;;;;;5012976;28;20707;-73
2023/05/18 03:30:19;;;;;;;6.57;1.80;;;8.80;89.30;;;;;;5029561;28;20200;-73
2023/05/18 03:32:48;;;;;;;2.92;1.35;;;8.80;89.90;;;;;;5028873;28;20200;-73
2023/05/18 03:35:14;;;;;;;7.00;2.00;;;8.80;90.20;;;;;;5015925;28;20268;-73
2023/05/18 03:37:40;;;;;;;3.13;1.60;;;8.70;90.10;;;;;;5016945;28;20177;-73
2023/05/18 03:40:14;;;;;;;4.00;1.77;;;8.70;90.30;;;;;;5017161;28;20717;-73
2023/05/18 03:42:42;;;;;;;4.65;2.00;;;8.70;90.90;;;;;;5016709;28;20224;-73
2023/05/18 03:45:09;;;;;;;4.68;1.48;;;8.70;90.70;;;;;;5036950;28;20612;-74
2023/05/18 03:47:35;;;;;;;5.85;1.52;;;8.70;90.80;;;;;;5017185;28;20243;-73
2023/05/18 03:50:02;;;;;;;4.82;1.75;;;8.60;90.80;;;;;;5034440;28;20209;-73
2023/05/18 03:52:28;;;;;;;5.10;1.40;;;8.60;91.30;;;;;;5016810;28;20170;-74
2023/05/18 03:54:55;;;;;;;3.83;1.70;;;8.60;91.30;;;;;;5033183;28;20201;-73
2023/05/18 03:57:21;;;;;;;3.40;1.60;;;8.60;91.40;;;;;;5016865;28;20236;-73
2023/05/18 03:59:47;;;;;;;5.70;2.55;;;8.60;91.50;;;;;;5016924;28;20585;-73
2023/05/18 04:02:15;;;;;;;4.40;1.60;;;8.60;91.70;;;;;;5034769;28;20173;-73
2023/05/18 04:04:44;;;;;;;4.05;1.65;;;8.60;91.90;;;;;;5017943;28;20193;-73
2023/05/18 04:07:11;;;;;;;2.42;1.33;;;8.60;92.10;;;;;;5016876;28;20170;-73
2023/05/18 04:09:37;;;;;;;2.80;1.48;;;8.60;92.60;;;;;;5016764;28;20170;-73
2023/05/18 04:12:04;;;;;;;2.72;1.38;;;8.60;92.60;;;;;;5033383;28;20170;-73
2023/05/18 04:14:33;;;;;;;1.90;1.25;;;8.70;93.10;;;;;;5033594;28;20189;-73
2023/05/18 04:17:03;;;;;;;4.63;1.50;;;8.70;92.80;;;;;;5033835;28;20217;-73
2023/05/18 04:19:31;;;;;;;3.53;1.45;;;8.70;92.90;;;;;;5032892;28;20174;-73
2023/05/18 04:21:57;;;;;;;5.15;1.38;;;8.70;93.10;;;;;;5020084;28;20232;-73
2023/05/18 04:24:25;;;;;;;2.70;1.45;;;8.80;93.10;;;;;;5016250;28;20201;-73
2023/05/18 04:26:52;;;;;;;3.20;1.20;;;8.80;93.20;;;;;;5032880;28;20255;-73
2023/05/18 04:29:18;;;;;;;7.65;2.28;;;8.90;93.30;;;;;;5032980;28;20568;-73
2023/05/18 04:31:46;;;;;;;6.57;1.90;;;8.90;93.50;;;;;;5032045;28;20205;-73
2023/05/18 04:34:12;;;;;;;5.78;1.45;;;9.00;93.70;;;;;;5032529;28;20623;-74
2023/05/18 04:36:41;;;;;;;2.60;1.30;;;9.00;93.70;;;;;;5016210;28;20211;-73
2023/05/18 04:39:08;;;;;;;3.25;1.10;;;9.10;94.00;;;;;;5032353;28;20526;-73
2023/05/18 04:41:34;;;;;;;5.70;1.63;;;9.20;94.20;;;;;;5015983;28;20174;-73
2023/05/18 04:44:01;;;;;;;5.07;1.40;;;9.30;94.40;;;;;;5032156;28;20208;-73
2023/05/18 04:46:27;;;;;;;5.65;1.60;;;9.30;94.40;;;;;;5031226;28;20228;-73
2023/05/18 04:48:56;;;;;;;4.35;1.55;;;9.40;94.60;;;;;;5015548;28;20193;-73
2023/05/18 04:51:25;;;;;;;6.10;2.90;;;9.50;94.70;;;;;;5015349;28;20198;-73
2023/05/18 04:53:51;;;;;;;4.63;1.92;;;9.70;95.00;;;;;;5033303;28;20257;-72
2023/05/18 04:56:19;;;;;;;5.20;1.73;;;9.80;95.20;;;;;;5015791;28;20235;-73
2023/05/18 04:58:48;;;;;;;3.88;1.25;;;10.00;94.80;;;;;;5033221;28;20232;-73
2023/05/18 05:01:16;;;;;;;5.60;1.40;;;10.20;94.80;;;;;;5015321;28;20173;-73
2023/05/18 05:03:42;;;;;;;4.57;1.90;;;10.30;94.70;;;;;;5015773;28;20194;-73
2023/05/18 05:06:09;;;;;;;3.28;2.30;;;10.40;94.60;;;;;;5031644;28;20177;-73
2023/05/18 05:08:36;;;;;;;4.68;1.40;;;10.50;94.60;;;;;;5032082;28;20173;-73
2023/05/18 05:11:02;;;;;;;5.18;1.30;;;10.50;94.60;;;;;;5032503;28;20267;-73
2023/05/18 05:13:29;;;;;;;3.65;1.20;;;10.60;94.60;;;;;;5015044;28;20209;-73
2023/05/18 05:15:55;;;;;;;4.38;1.60;;;10.70;94.70;;;;;;5031353;28;20170;-73
2023/05/18 05:18:21;;;;;;;3.90;1.50;;;10.90;95.00;;;;;;5032885;28;20170;-74
2023/05/18 05:20:49;;;;;;;6.00;1.67;;;11.20;95.30;;;;;;4998388;28;20173;-73
2023/05/18 05:23:15;;;;;;;4.80;1.70;;;11.40;95.90;;;;;;5028351;28;20201;-73
2023/05/18 05:25:43;;;;;;;4.15;1.55;;;12.00;96.90;;;;;;5014900;28;20169;-73
2023/05/18 05:28:08;;;;;;;4.97;1.67;;;12.70;97.30;;;;;;5031541;28;20641;-73
2023/05/18 05:30:35;;;;;;;2.67;1.50;;;13.40;97.20;;;;;;4998758;28;20200;-73
2023/05/18 05:33:00;;;;;;;4.43;1.50;;;14.00;96.80;;;;;;5032129;28;20193;-73
2023/05/18 05:35:27;;;;;;;4.77;1.77;;;14.40;95.90;;;;;;5018739;28;20192;-73
2023/05/18 05:37:53;;;;;;;10.10;1.57;;;14.90;95.40;;;;;;5014489;28;20589;-74
2023/05/18 05:40:19;;;;;;;5.00;1.73;;;15.20;94.80;;;;;;5031353;28;20591;-73
2023/05/18 05:42:45;;;;;;;5.67;1.90;;;15.50;94.20;;;;;;5030707;28;20720;-73
2023/05/18 05:45:12;;;;;;;3.53;1.10;;;15.90;94.30;;;;;;5015004;28;20640;-72
2023/05/18 05:47:48;;;;;;;3.43;1.20;;;16.30;94.40;;;;;;5014350;28;20584;-73
2023/05/18 05:50:16;;;;;;;6.13;1.30;;;17.00;94.80;;;;;;5031217;28;21331;-74
2023/05/18 05:52:44;;;;;;;5.70;1.17;;;17.80;93.50;;;;;;5014165;28;20604;-73
2023/05/18 05:55:10;;;;;;;2.57;0.90;;;18.60;93.90;;;;;;5031039;28;21071;-74
2023/05/18 05:57:38;;;;;;;4.90;1.37;;;19.50;93.70;;;;;;5031013;28;20645;-73
2023/05/18 06:00:05;;;;;;;4.43;1.27;;;20.30;93.20;;;;;;5014490;28;20582;-73
2023/05/18 06:02:47;;;;;;;5.27;1.63;;;21.10;90.20;;;;;;5027447;28;20715;-73
2023/05/18 06:05:13;;;;;;;2.93;0.83;;;21.70;89.00;;;;;;4996360;28;20593;-73
2023/05/18 06:07:39;;;;;;;4.37;1.50;;;22.40;89.10;;;;;;5013096;28;20935;-72
2023/05/18 06:10:06;;;;;;;3.43;0.90;;;23.00;86.10;;;;;;5030033;28;20628;-72
2023/05/18 06:12:31;;;;;;;5.70;1.23;;;23.60;84.60;;;;;;5014235;28;20276;-72
2023/05/18 06:14:57;;;;;;;3.80;1.13;;;24.30;83.10;;;;;;5013731;28;20718;-72
2023/05/18 06:17:24;;;;;;;7.10;1.30;;;24.90;80.90;;;;;;5030795;28;20185;-72
2023/05/18 06:19:50;;;;;;;3.10;1.10;;;25.40;78.70;;;;;;5031813;28;21174;-72
2023/05/18 06:22:16;;;;;;;5.30;1.10;;;25.90;76.30;;;;;;5030129;28;20589;-71
2023/05/18 06:24:54;;;;;;;5.87;1.30;;;26.40;74.20;;;;;;5024463;28;20208;-72
2023/05/18 06:27:33;;;;;;;4.73;1.33;;;26.80;72.20;;;;;;5013875;28;20584;-71
2023/05/18 06:30:18;;;;;;;1.90;0.87;;;27.30;69.90;;;;;;5030518;28;21336;-72
2023/05/18 06:33:06;;;;;;;2.50;0.90;;;27.70;68.60;;;;;;5013592;28;20707;-72
2023/05/18 06:35:32;;;;;;;2.67;0.80;;;28.10;66.60;;;;;;5030459;28;20979;-72
2023/05/18 06:37:58;;;;;;;5.07;1.13;;;28.50;64.10;;;;;;5013678;28;20688;-72
2023/05/18 06:40:24;;;;;;;3.53;1.10;;;28.90;63.10;;;;;;5031594;28;21179;-72
2023/05/18 06:42:50;;;;;;;4.80;1.00;;;29.20;59.90;;;;;;5029631;28;20201;-72
2023/05/18 06:45:38;;;;;;;3.87;1.33;;;29.40;59.10;;;;;;5031415;28;20676;-73
2023/05/18 06:48:11;;;;;;;10.53;1.60;;;29.70;58.20;;;;;;5013472;28;20751;-73
2023/05/18 06:50:37;;;;;;;3.53;1.37;;;29.90;57.40;;;;;;5030586;28;21243;-73
2023/05/18 06:53:03;;;;;;;3.13;1.17;;;30.20;56.50;;;;;;5012879;28;20205;-72
2023/05/18 06:55:29;;;;;;;2.63;0.80;;;30.50;55.80;;;;;;5030160;28;21120;-73
2023/05/18 06:57:57;;;;;;;3.37;1.00;;;30.80;54.30;;;;;;5029883;28;20577;-73
2023/05/18 07:00:23;;;;;;;2.43;0.83;;;31.00;54.10;;;;;;5013585;28;20572;-73
2023/05/18 07:02:49;;;;;;;4.60;1.00;;;31.20;53.30;;;;;;5029736;28;20600;-73
2023/05/18 07:05:16;;;;;;;3.73;1.00;;;31.50;52.70;;;;;;5012432;28;20614;-73
2023/05/18 07:07:42;;;;;;;3.63;1.07;;;31.80;52.00;;;;;;5031104;28;20636;-73
2023/05/18 07:10:08;;;;;;;4.67;1.00;;;31.90;50.80;;;;;;5030192;28;21153;-73
2023/05/18 07:12:34;;;;;;;3.70;1.10;;;32.20;50.00;;;;;;5029246;28;20627;-73
2023/05/18 07:15:00;;;;;;;3.30;1.13;;;32.30;48.90;;;;;;5028972;28;20979;-73
2023/05/18 07:17:27;;;;;;;2.77;1.10;;;32.40;48.30;;;;;;5029459;28;20166;-73
2023/05/18 07:19:52;;;;;;;3.67;1.00;;;32.50;48.00;;;;;;5029630;28;21423;-73
2023/05/18 07:22:18;;;;;;;2.43;0.93;;;32.60;47.50;;;;;;5030654;28;20208;-73
2023/05/18 07:24:44;;;;;;;4.60;1.60;;;32.60;47.00;;;;;;5026969;28;20196;-73
2023/05/18 07:27:09;;;;;;;3.80;1.30;;;32.80;46.50;;;;;;5025114;28;20656;-73
2023/05/18 07:29:36;;;;;;;2.27;1.00;;;32.90;46.00;;;;;;5031206;28;20649;-72
2023/05/18 07:32:01;;;;;;;3.90;1.17;;;33.10;45.70;;;;;;5030050;28;20223;-72
2023/05/18 07:34:27;;;;;;;3.53;0.97;;;33.30;45.10;;;;;;5029213;28;20674;-72
2023/05/18 07:36:53;;;;;;;5.37;1.87;;;33.40;44.00;;;;;;5018939;28;20651;-73
2023/05/18 07:39:19;;;;;;;4.17;1.20;;;33.50;43.80;;;;;;5031376;28;20180;-72
2023/05/18 07:41:47;;;;;;;3.67;1.10;;;33.70;43.60;;;;;;5028997;28;20177;-72
2023/05/18 07:44:13;;;;;;;2.93;1.00;;;33.80;42.90;;;;;;5030902;28;20200;-73
2023/05/18 07:46:40;;;;;;;2.63;1.17;;;33.90;42.30;;;;;;5030657;28;20583;-72
2023/05/18 07:49:06;;;;;;;2.73;1.10;;;33.90;41.90;;;;;;5031067;28;20582;-73
2023/05/18 07:51:32;;;;;;;2.85;1.10;;;33.60;40.70;;;;;;5029032;28;20725;-74
2023/05/18 07:53:58;;;;;;;2.53;0.90;;;33.40;39.40;;;;;;5030737;28;20185;-73
2023/05/18 07:56:24;;;;;;;3.42;1.20;;;33.50;40.50;;;;;;5031160;28;20701;-73
2023/05/18 07:58:51;;;;;;;3.85;1.10;;;33.50;39.40;;;;;;5030192;28;21539;-74
2023/05/18 08:01:16;;;;;;;6.77;2.00;;;33.50;37.60;;;;;;5012373;28;20246;-73
2023/05/18 08:03:42;;;;;;;5.33;1.10;;;33.70;39.20;;;;;;5030434;28;21009;-72
2023/05/18 08:06:08;;;;;;;3.70;1.40;;;33.80;38.40;;;;;;5029670;28;20583;-74
2023/05/18 08:08:36;;;;;;;4.80;1.20;;;33.90;38.60;;;;;;5028887;28;20184;-74
2023/05/18 08:11:03;;;;;;;4.50;1.00;;;34.00;39.00;;;;;;5030495;28;20214;-73
2023/05/18 08:13:29;;;;;;;3.65;1.20;;;34.20;38.70;;;;;;5029463;28;20722;-73
2023/05/18 08:15:55;;;;;;;4.37;1.20;;;33.90;35.30;;;;;;5029355;28;20177;-73
2023/05/18 08:18:21;;;;;;;4.23;1.23;;;34.10;37.50;;;;;;5030847;28;20231;-72
2023/05/18 08:20:48;;;;;;;3.20;1.00;;;34.40;37.70;;;;;;5030615;28;20749;-72
2023/05/18 08:23:14;;;;;;;3.60;1.40;;;34.60;37.80;;;;;;5032639;28;20964;-72
2023/05/18 08:25:40;;;;;;;2.87;1.13;;;34.60;37.80;;;;;;5014158;28;20585;-72
2023/05/18 08:28:06;;;;;;;4.20;1.20;;;34.70;37.00;;;;;;5014483;28;20954;-73
2023/05/18 08:30:32;;;;;;;3.87;1.30;;;34.70;36.20;;;;;;5029036;28;20563;-73
2023/05/18 08:32:57;;;;;;;2.63;0.90;;;34.60;35.80;;;;;;5014733;28;20203;-73
2023/05/18 08:35:23;;;;;;;2.80;1.10;;;34.60;35.80;;;;;;5045087;28;20176;-73
2023/05/18 08:37:49;;;;;;;4.40;1.07;;;34.60;35.40;;;;;;5052743;28;20678;-73
2023/05/18 08:40:15;;;;;;;4.47;1.50;;;34.60;35.50;;;;;;5036067;28;20187;-73
2023/05/18 08:42:56;;;;;;;2.80;0.90;;;34.60;35.30;;;;;;5053033;28;20594;-74
2023/05/18 08:45:34;;;;;;;5.27;0.97;;;34.60;35.10;;;;;;5053865;28;21144;-73
2023/05/18 08:48:02;;;;;;;4.80;1.67;;;34.60;35.20;;;;;;5029135;28;20584;-73
2023/05/18 08:50:30;;;;;;;7.90;0.93;;;34.70;35.30;;;;;;5022169;28;20639;-74
2023/05/18 08:53:00;;;;;;;3.00;1.00;;;34.80;35.00;;;;;;5013844;28;20611;-75
2023/05/18 08:55:28;;;;;;;2.07;0.80;;;34.90;33.70;;;;;;5028423;28;20619;-74
2023/05/18 08:57:56;;;;;;;2.87;1.07;;;34.90;34.20;;;;;;5026241;28;20614;-74
2023/05/18 09:00:23;;;;;;;4.50;1.20;;;35.00;34.60;;;;;;5033631;28;20654;-74
2023/05/18 09:02:49;;;;;;;3.30;1.20;;;35.10;33.20;;;;;;5031589;28;20604;-74
2023/05/18 09:05:17;;;;;;;2.77;0.90;;;35.00;33.40;;;;;;5032266;28;20690;-75
2023/05/18 09:07:44;;;;;;;3.80;1.00;;;35.00;33.40;;;;;;5033059;28;20583;-74
2023/05/18 09:10:11;;;;;;;3.63;0.97;;;35.30;33.40;;;;;;5033570;28;20616;-74
2023/05/18 09:12:39;;;;;;;2.70;1.00;;;35.20;32.80;;;;;;5031574;28;20591;-74
2023/05/18 09:15:09;;;;;;;4.40;1.20;;;35.00;32.70;;;;;;5032947;28;20625;-74
2023/05/18 09:17:35;;;;;;;5.60;0.90;;;34.90;32.40;;;;;;5033705;28;20572;-74
2023/05/18 09:20:04;;;;;;;3.80;1.37;;;34.90;32.50;;;;;;5032960;28;20728;-74
2023/05/18 09:22:30;;;;;;;3.60;0.90;;;34.70;32.30;;;;;;5032692;28;20226;-74
2023/05/18 09:24:56;;;;;;;2.70;0.87;;;34.30;31.90;;;;;;5032802;28;20654;-74
2023/05/18 09:27:22;;;;;;;3.57;0.93;;;34.20;32.30;;;;;;5028763;28;20585;-74
2023/05/18 09:29:55;;;;;;;4.13;1.10;;;34.30;32.70;;;;;;5012786;28;20602;-74
2023/05/18 09:32:22;;;;;;;3.07;0.90;;;34.20;32.30;;;;;;5012324;28;20579;-74
2023/05/18 09:34:48;;;;;;;3.93;1.00;;;33.70;31.30;;;;;;5012921;28;20895;-74
2023/05/18 09:37:18;;;;;;;4.23;0.90;;;33.10;31.20;;;;;;5012349;28;20576;-74
2023/05/18 09:39:45;;;;;;;3.70;0.97;;;32.50;31.20;;;;;;5013186;28;21043;-74
2023/05/18 09:42:11;;;;;;;2.07;0.80;;;32.20;31.90;;;;;;5012378;28;20957;-74
2023/05/18 09:44:37;;;;;;;3.37;1.00;;;31.90;31.90;;;;;;5013108;28;20632;-74
2023/05/18 09:47:08;;;;;;;4.50;1.20;;;31.80;32.50;;;;;;5012873;28;21001;-74
2023/05/18 09:49:36;;;;;;;2.57;0.90;;;32.00;32.80;;;;;;5011866;28;20577;-74
2023/05/18 09:52:07;;;;;;;4.90;1.73;;;32.40;33.50;;;;;;5012163;28;20619;-74
2023/05/18 09:54:34;;;;;;;3.47;0.90;;;33.00;33.80;;;;;;5029925;28;20656;-74
2023/05/18 09:57:02;;;;;;;4.73;1.70;;;33.40;33.50;;;;;;5030765;28;20595;-74
2023/05/18 09:59:35;;;;;;;1.73;0.80;;;33.90;33.20;;;;;;5032365;28;21160;-74
2023/05/18 10:02:24;;;;;;;4.83;1.03;;;34.20;33.00;;;;;;5030885;28;21108;-80
2023/05/18 10:04:50;;;;;;;4.53;1.10;;;34.60;31.40;;;;;;5014913;28;20922;-79
2023/05/18 10:07:16;;;;;;;2.20;0.80;;;34.80;31.70;;;;;;5014019;28;20670;-79
2023/05/18 10:09:44;;;;;;;4.90;1.20;;;35.00;31.60;;;;;;5030837;28;20211;-79
2023/05/18 10:12:15;;;;;;;4.13;1.20;;;35.20;31.20;;;;;;5030434;28;20611;-79
2023/05/18 10:14:42;;;;;;;3.20;0.90;;;35.30;29.90;;;;;;5030489;28;20623;-79
2023/05/18 10:17:11;;;;;;;2.50;1.20;;;35.20;30.50;;;;;;5031925;28;20612;-79
2023/05/18 10:19:40;;;;;;;4.63;1.10;;;35.20;30.00;;;;;;5030600;28;20668;-79
2023/05/18 10:22:07;;;;;;;5.00;1.20;;;35.10;30.00;;;;;;5030290;28;21166;-80
2023/05/18 10:24:37;;;;;;;4.00;1.13;;;35.00;30.00;;;;;;5031272;28;20624;-79
2023/05/18 10:27:08;;;;;;;4.13;1.07;;;35.00;30.00;;;;;;5014785;28;20587;-79
2023/05/18 10:29:36;;;;;;;2.93;1.40;;;34.70;29.80;;;;;;5029036;28;20583;-79
2023/05/18 10:32:03;;;;;;;2.80;1.00;;;34.60;29.20;;;;;;5030707;28;21044;-79
2023/05/18 10:34:31;;;;;;;3.13;1.10;;;34.20;28.60;;;;;;5031282;28;20603;-78
2023/05/18 10:36:58;;;;;;;3.70;0.90;;;33.80;28.80;;;;;;5030602;28;20577;-78
2023/05/18 10:39:26;;;;;;;3.63;1.20;;;33.40;29.20;;;;;;5029870;28;20583;-79
2023/05/18 10:41:53;;;;;;;2.57;1.03;;;33.30;29.70;;;;;;5030876;28;20585;-78
2023/05/18 10:44:20;;;;;;;2.63;0.90;;;33.30;30.10;;;;;;5029417;28;20681;-79
2023/05/18 10:46:48;;;;;;;2.50;0.80;;;33.00;29.70;;;;;;5030288;28;21031;-79
2023/05/18 10:49:16;;;;;;;3.87;0.90;;;32.80;29.90;;;;;;5031496;28;21038;-79
2023/05/18 10:51:43;;;;;;;2.70;0.90;;;32.70;29.70;;;;;;5029761;28;20729;-78
2023/05/18 10:54:13;;;;;;;2.90;1.00;;;32.50;30.00;;;;;;5033949;28;20613;-78
2023/05/18 10:56:49;;;;;;;2.57;1.00;;;32.30;29.80;;;;;;5019683;28;20592;-79
2023/05/18 10:59:17;;;;;;;2.03;1.00;;;31.90;29.30;;;;;;5038707;28;20956;-79
2023/05/18 11:01:44;;;;;;;2.73;0.90;;;31.50;29.80;;;;;;5040568;28;20576;-81
2023/05/18 11:04:10;;;;;;;3.00;1.50;;;31.30;30.40;;;;;;5037279;28;20629;-78
2023/05/18 11:06:37;;;;;;;4.40;2.27;;;31.20;30.20;;;;;;5040675;28;20591;-78
2023/05/18 11:09:04;;;;;;;4.53;1.27;;;30.80;29.60;;;;;;5037255;28;20683;-80
2023/05/18 11:11:54;;;;;;;4.80;1.00;;;30.40;29.90;;;;;;5035190;28;20642;-78
2023/05/18 11:14:31;;;;;;;3.33;0.93;;;30.10;29.90;;;;;;5029069;28;20639;-83
2023/05/18 11:17:24;;;;;;;3.10;1.00;;;29.90;30.90;;;;;;4984283;28;20643;-79
2023/05/18 11:20:05;;;;;;;3.80;0.87;;;29.80;31.20;;;;;;5011894;28;21160;-78
2023/05/18 11:23:10;;;;;;;3.10;1.03;;;29.80;31.20;;;;;;5014332;28;20688;-78
2023/05/18 11:25:37;;;;;;;2.43;0.80;;;29.70;30.70;;;;;;5031089;28;20951;-78
2023/05/18 11:28:06;;;;;;;3.97;1.03;;;29.70;31.30;;;;;;5031294;28;20580;-78
2023/05/18 11:30:32;;;;;;;4.00;1.00;;;29.70;31.20;;;;;;5030644;28;20666;-78
2023/05/18 11:33:13;;;;;;;2.93;0.90;;;29.70;31.50;;;;;;5029364;28;20618;-78
2023/05/18 11:36:02;;;;;;;4.53;1.47;;;29.70;31.90;;;;;;5030627;28;20169;-77
2023/05/18 11:38:54;;;;;;;5.20;1.00;;;29.80;32.00;;;;;;5013393;28;20609;-77
2023/05/18 11:41:35;;;;;;;3.27;1.10;;;29.70;31.50;;;;;;5030472;28;20622;-78
2023/05/18 11:44:38;;;;;;;2.90;1.10;;;29.60;31.10;;;;;;5029526;28;20616;-78
2023/05/18 11:47:07;;;;;;;3.27;1.20;;;29.50;29.90;;;;;;4968762;28;20636;-78
2023/05/18 11:49:37;;;;;;;3.07;1.17;;;29.50;31.00;;;;;;5016164;28;21217;-78
2023/05/18 11:52:22;;;;;;;4.13;1.20;;;29.40;31.20;;;;;;5030216;28;20965;-79
2023/05/18 11:54:52;;;;;;;3.00;1.13;;;29.30;31.60;;;;;;5027916;28;20597;-79
2023/05/18 11:57:25;;;;;;;2.90;1.17;;;29.10;31.10;;;;;;5026668;28;20596;-78
2023/05/18 11:59:57;;;;;;;2.93;1.00;;;29.00;31.50;;;;;;5007685;28;20616;-78
2023/05/18 12:02:46;;;;;;;3.00;1.13;;;29.00;31.50;;;;;;5032581;28;20584;-78
2023/05/18 12:05:13;;;;;;;3.40;1.23;;;28.80;31.20;;;;;;5028198;28;20595;-78
2023/05/18 12:07:39;;;;;;;3.30;1.00;;;28.80;31.10;;;;;;5034176;28;20674;-78
2023/05/18 12:10:13;;;;;;;3.00;1.17;;;28.50;31.40;;;;;;5034687;28;20631;-78
2023/05/18 12:12:40;;;;;;;2.47;1.00;;;28.20;31.40;;;;;;5033108;28;20769;-78
2023/05/18 12:15:07;;;;;;;2.10;1.03;;;28.00;31.30;;;;;;5034464;28;20576;-78
2023/05/18 12:17:44;;;;;;;4.90;1.30;;;27.80;31.30;;;;;;5033416;28;20986;-78
2023/05/18 12:20:12;;;;;;;4.40;1.30;;;27.60;31.40;;;;;;5033030;28;20604;-79
2023/05/18 12:22:43;;;;;;;2.93;0.90;;;27.40;31.40;;;;;;5031630;28;20958;-79
2023/05/18 12:25:10;;;;;;;2.40;0.90;;;27.10;31.70;;;;;;5043472;28;20584;-79
2023/05/18 12:27:40;;;;;;;2.40;1.20;;;26.90;32.30;;;;;;5040042;28;20580;-79
2023/05/18 12:30:13;;;;;;;4.00;0.90;;;26.80;32.50;;;;;;5048341;28;20643;-79
2023/05/18 12:32:44;;;;;;;3.00;1.00;;;26.70;32.70;;;;;;5019465;28;20629;-79
2023/05/18 12:35:10;;;;;;;4.00;1.10;;;26.40;32.50;;;;;;5044329;28;20592;-80
2023/05/18 12:37:56;;;;;;;3.72;1.30;;;26.30;32.80;;;;;;5054023;28;20466;-80
2023/05/18 12:40:22;;;;;;;3.77;0.80;;;26.10;33.00;;;;;;5023604;28;20189;-79
2023/05/18 12:42:58;;;;;;;2.93;0.87;;;26.10;33.10;;;;;;5024507;28;20631;-79
2023/05/18 12:45:30;;;;;;;2.50;0.97;;;25.90;33.00;;;;;;5047563;28;20917;-76
2023/05/18 12:48:07;;;;;;;3.67;1.10;;;25.60;32.80;;;;;;5036029;28;20587;-79
2023/05/18 12:50:33;;;;;;;3.83;0.90;;;25.40;33.30;;;;;;5033131;28;20702;-79
2023/05/18 12:53:00;;;;;;;2.93;1.00;;;25.20;32.90;;;;;;5048613;28;20747;-79
2023/05/18 12:55:29;;;;;;;4.20;1.27;;;25.00;32.80;;;;;;5040107;28;20582;-78
2023/05/18 12:58:11;;;;;;;6.00;1.30;;;24.70;32.70;;;;;;5041566;28;20619;-79
2023/05/18 13:00:37;;;;;;;3.87;1.00;;;24.50;33.40;;;;;;5016164;28;20576;-79